Logo AVAMET
Benvolgut visitant, si us plau, ingressa Recuperar contrasenya
AVAMET paisatges

Teulada Sant Jaume

Dades diàries. Acumulats / Últims 30 dies disponibles

Data Temperatura (°C) Humitat rel. (%) Pressió rel. (hPa) Vent (km/h) Precipitació
Mínima Mitjana Màxima Amplitud
tèrmica
Mínima Mitjana Màxima Mínima Mitjana Màxima Predom. Mitjana Ràfega
màxima
Total
(mm)
Índex-n
Mínima Mitjana Màxima Mínima Mitjana Màxima n
0 a 1
P0 max
mm 5'
Dades mensuals acumulades fins l'últim dia disponible
04/2020 10,0 10,0 10,0 12,9 18,0 18,0 18,0 8,0 82 92 98 1.006 1.007 1.009   5,6 25,5 3,2
Dades anuals acumulades fins l'últim dia disponible
2020 4,9 9,0 14,8 12,3 9,9 16,4 25,3 20,4 21 77 98 999 1.018 1.031   7,2 86,6 294,3
Últims 30 dies disponibles
01-04-2020 10,0     12,9     18,0 8,0 82 92 98 1.006 1.007 1.009 OSO 5,6 25,5 3,2
31-03-2020 7,4     10,6     16,2 8,8 85 96 98 1.004 1.005 1.008 N 14,7 28,1 2,0
30-03-2020 8,6     11,4     14,0 5,4 69 79 97 1.008 1.009 1.010 NO 12,1 30,5 1,5
29-03-2020 7,8     13,2     18,2 10,4 48 64 76 1.010 1.012 1.015 OSO 7,8 27,4 0,0
28-03-2020 6,7     10,0     15,3 8,6 57 77 96 1.011 1.013 1.015 N 10,5 26,3 0,0
27-03-2020 6,8     8,2     10,3 3,5 79 92 98 1.006 1.009 1.011 NNO 7,6 20,9 4,7
26-03-2020 6,3     10,0     15,2 8,9 53 79 96 1.003 1.005 1.009 NO 10,9 27,4 0,0
25-03-2020 6,9     8,5     9,9 3,0 79 92 98 1.010 1.012 1.013 NO 6,9 23,3 9,8 0,14 1,00
24-03-2020 9,8     11,6     12,6 2,8 81 97 98 1.009 1.011 1.012 ONO 16,5 38,9 13,3 0,38 1,20
23-03-2020 10,0     12,5     15,7 5,7 90 97 98 1.009 1.011 1.013 SSO 5,6 20,5 3,5
22-03-2020 9,4     11,9     16,6 7,2 85 95 98 1.006 1.008 1.011 NNO 6,1 20,5 0,5
21-03-2020 10,4     11,4     12,0 1,6 98 98 98 1.008 1.010 1.013 N 6,7 25,2 5,2
20-03-2020 10,0     11,6     14,1 4,1 86 96 98 1.012 1.014 1.016 N 10,0 24,4 1,0
19-03-2020 10,5     12,7     16,5 6,0 79 93 98 1.016 1.018 1.021 NO 10,5 21,3 0,0
18-03-2020 10,8     12,6     15,0 4,2 86 95 98 1.021 1.022 1.023 N 15,7 32,4 0,0
17-03-2020 9,1     11,1     13,5 4,4 98 98 98 1.015 1.019 1.023 NO 11,5 32,0 9,0
16-03-2020 8,7     11,5     15,6 6,9 88 96 98 1.007 1.010 1.016 O 4,4 16,1 3,1
15-03-2020 9,8     12,8     16,6 6,8 82 94 98 1.011 1.014 1.017 SO 4,0 19,4 0,0
14-03-2020 10,4     13,2     16,9 6,5 80 92 98 1.015 1.016 1.018 OSO 4,8 14,8 0,0
13-03-2020 11,6     13,5     17,4 5,8 66 85 96 1.013 1.015 1.016 N 15,2 38,1 0,0
12-03-2020 11,1     15,8     20,6 9,5 49 69 96 1.014 1.016 1.019 SO 4,5 15,7 0,0
11-03-2020 10,5     16,1     23,7 13,2 48 69 90 1.018 1.019 1.020 SO 2,4 10,4 0,0
10-03-2020 8,0     12,5     16,4 8,4 62 70 80 1.019 1.021 1.023 OSO 6,6 28,3 0,0
09-03-2020 11,2     15,6     20,1 8,9 36 48 66 1.016 1.018 1.020 NO 10,0 31,3 0,0
08-03-2020 9,0     13,9     17,6 8,6 40 58 71 1.017 1.019 1.021 OSO 5,6 20,2 0,0
07-03-2020 9,9     12,7     17,0 7,1 31 40 61 1.015 1.018 1.021 NO 18,5 44,6 0,0
06-03-2020 10,1     13,1     16,6 6,5 31 46 66 1.009 1.011 1.016 NNO 16,8 46,4 0,0
05-03-2020 13,0     17,1     22,2 9,2 40 53 63 1.005 1.008 1.013 ONO 10,0 41,1 0,0
04-03-2020 14,0     18,2     23,0 9,0 45 57 68 1.011 1.014 1.016 NO 8,6 32,0 0,0
03-03-2020 9,0     14,4     20,9 11,9 35 46 55 1.007 1.011 1.014 ONO 12,9 51,4 0,0
Últims 13 mesos disponibles
03/2020 6,3 9,7 14,8 12,9 9,9 16,9 23,7 17,4 40 77 98 1.003 1.013 1.022 NO 9,9 58,6 56,8
02/2020 6,3 9,8 14,5 13,4 12,6 17,7 25,3 19,0 35 75 98 1.010 1.021 1.029 OSO 4,9 36,3 5,0
01/2020 4,9 7,6 14,2 10,7 11,7 14,8 20,5 15,6 55 79 98 1.010 1.021 1.028 O 6,7 86,6 229,3
12/2019 5,8 10,1 14,4 12,8 12,1 16,7 22,0 16,2 46 77 97 1.001 1.015 1.028 OSO 7,2 54,6 144,0
11/2019 5,8 11,0 20,0 14,2 13,1 18,1 25,7 19,9 39 58 83 994 1.007 1.015 O 9,9 56,4 22,0
10/2019 10,1 15,4 18,9 18,8 15,5 23,1 26,7 16,6 48 77 96 1.004 1.013 1.018 OSO 6,2 84,9 79,2
09/2019 12,8 18,6 22,3 22,0 22,1 26,2 29,5 16,7 65 85 94 1.007 1.015 1.020 OSO 9,0 54,6 152,0
08/2019 17,6 20,6 24,2 24,8 26,5 29,8 36,0 18,4 51 78 89 1.008 1.014 1.017 SO 9,0 42,4 56,9
07/2019 18,6 20,8 25,3 25,5 27,8 30,7 34,5 15,9 39 69 84 1.004 1.012 1.019 SO 8,4 52,5 1,5
06/2019 11,4 16,4 22,2 21,4 22,3 26,6 35,3 23,9 41 69 86 1.006 1.012 1.019 SSO 10,7 43,1 0,5
05/2019 8,2 13,0 19,8 17,0 17,8 21,5 26,4 18,2 55 73 91 1.002 1.012 1.022 SSO 9,4 46,1 15,9
04/2019 6,6 10,4 12,6 13,9 12,7 18,1 25,6 19,0 37 73 98 996 1.009 1.022 SO 11,2 54,6 257,8
03/2019 6,0 8,6 12,0 12,8 12,4 17,8 26,8 20,8 40 63 94 1.010 1.020 1.026 S 10,1 45,0 41,4
Tots els anys disponibles
2019 2,4 13,3 25,3 17,1 10,6 21,7 36,0 33,6 29 71 98 992 1.013 1.029 SO 9,1 84,9 776,3
2018 1,9 13,3 24,3 17,0 7,0 21,6 35,4 33,5 33 71 98 57 986 1.028 SSO 9,0 84,2 580,5
2017 -0,4 13,4 25,4 17,3 6,6 22,0 35,8 36,2 31 70 96 971 1.015 1.031 S 9,0 87,0 647,4
2016 2,8 13,6 25,8 17,8 11,2 22,0 38,4 35,6 24 68 98 981 1.017 1.035 57,0 401,7
Temperatura (°C)
Humitat relativa (%)
Velocitat del vent i ràfega màxima (km/h)
Direcció del vent (°)
Pressió (hPa)
Precipitació (mm)
Nota sobre les dades: s'avisa a l'usuari de la provisionalitat i no oficialitat d'aquestes dades
Logo AVAMET blanc
Web allotjada a Sollutia
Llicència de Creative CommonsLa web d'AVAMET i els seus continguts estan subjectes a una llicència de
Reconeixement - No Comercial - Compartir igual
Últimes estacions:  Altea - Com. Regants (Soci), Almoines (Inforatge), Beniparrell (Inforatge), Albal (Inforatge), Almussafes - Parc Industrial (Inforatge), La Vilavella (Soci), la Serratella (soci) - - -